RDBK12 YMES-YSHW
Flight info
| Callsign | RDBK12 |
|---|---|
| Flight time | 2h 30m |
| Altitude | 5500 |
| Route | YMES DCT TREVR DCT MTWN DCT 3646S14716E DCT YSWG DCT YMIG DCT YSHW |
| Aircraft | H60/M-SDFGRY/LB1 |
Departure
| Time | 2026-05-05 03:45 |
|---|---|
| Airport | RAAF Base East Sale (YMES) |
Arrival
| Time | 2026-05-05 06:16 |
|---|---|
| Airport | Holsworthy (Military) Airport (YSHW) |
| Time | Latitude | Longitude | Altitude | Speed | Heading |
|---|---|---|---|---|---|
| 2026-05-05 03:40 | -38.09889 | 147.13178 | 22 ft | 0 kts | 179° |
| 2026-05-05 03:42 | -38.09896 | 147.13183 | 22 ft | 4 kts | 71° |
| 2026-05-05 03:42 | -38.09855 | 147.13174 | 22 ft | 10 kts | 7° |
| 2026-05-05 03:42 | -38.09827 | 147.13197 | 21 ft | 9 kts | 95° |
| 2026-05-05 03:42 | -38.09834 | 147.13273 | 21 ft | 7 kts | 98° |
| 2026-05-05 03:43 | -38.09842 | 147.13334 | 20 ft | 7 kts | 99° |
| 2026-05-05 03:43 | -38.09850 | 147.13398 | 21 ft | 6 kts | 98° |
| 2026-05-05 03:43 | -38.09854 | 147.13432 | 23 ft | 5 kts | 89° |
| 2026-05-05 03:43 | -38.09837 | 147.13467 | 23 ft | 4 kts | 16° |
| 2026-05-05 03:44 | -38.09805 | 147.13474 | 21 ft | 8 kts | 8° |
| 2026-05-05 03:44 | -38.09763 | 147.13482 | 21 ft | 3 kts | 8° |
| 2026-05-05 03:44 | -38.09730 | 147.13489 | 22 ft | 8 kts | 8° |
| 2026-05-05 03:44 | -38.09655 | 147.13456 | 22 ft | 23 kts | 292° |
| 2026-05-05 03:45 | -38.09597 | 147.13074 | 56 ft | 62 kts | 279° |
| 2026-05-05 03:45 | -38.09470 | 147.12466 | 470 ft | 74 kts | 300° |
| 2026-05-05 03:45 | -38.09014 | 147.12187 | 791 ft | 83 kts | 4° |
| 2026-05-05 03:45 | -38.08409 | 147.12300 | 917 ft | 91 kts | 15° |
| 2026-05-05 03:46 | -38.07795 | 147.12477 | 1195 ft | 90 kts | 21° |
| 2026-05-05 03:46 | -38.07186 | 147.12826 | 1545 ft | 108 kts | 49° |
| 2026-05-05 03:46 | -38.06490 | 147.13465 | 1780 ft | 136 kts | 38° |
| 2026-05-05 03:46 | -38.05711 | 147.14263 | 2028 ft | 151 kts | 39° |
| 2026-05-05 03:47 | -38.04866 | 147.15154 | 2018 ft | 163 kts | 39° |
| 2026-05-05 03:47 | -38.04039 | 147.16021 | 2043 ft | 142 kts | 38° |
| 2026-05-05 03:47 | -38.03258 | 147.16849 | 2025 ft | 146 kts | 38° |
| 2026-05-05 03:47 | -38.02482 | 147.17683 | 2012 ft | 147 kts | 39° |
| 2026-05-05 03:48 | -38.01674 | 147.18473 | 1995 ft | 146 kts | 24° |
| 2026-05-05 03:48 | -38.00736 | 147.18921 | 2008 ft | 144 kts | 12° |
| 2026-05-05 03:48 | -37.99791 | 147.19314 | 2013 ft | 141 kts | 12° |
| 2026-05-05 03:48 | -37.98849 | 147.19723 | 2014 ft | 144 kts | 12° |
| 2026-05-05 03:49 | -37.97903 | 147.20108 | 2014 ft | 141 kts | 12° |
| 2026-05-05 03:49 | -37.96954 | 147.20497 | 2012 ft | 143 kts | 12° |
| 2026-05-05 03:49 | -37.96015 | 147.20904 | 2013 ft | 142 kts | 12° |
| 2026-05-05 03:49 | -37.95070 | 147.21290 | 2011 ft | 142 kts | 12° |
| 2026-05-05 03:50 | -37.94136 | 147.21681 | 2010 ft | 143 kts | 12° |
| 2026-05-05 03:50 | -37.93194 | 147.22083 | 2012 ft | 142 kts | 12° |
| 2026-05-05 03:50 | -37.92251 | 147.22484 | 2012 ft | 141 kts | 12° |
| 2026-05-05 03:50 | -37.91318 | 147.22870 | 2018 ft | 141 kts | 12° |
| 2026-05-05 03:51 | -37.90387 | 147.23255 | 2020 ft | 141 kts | 12° |
| 2026-05-05 03:51 | -37.89458 | 147.23646 | 2017 ft | 139 kts | 12° |
| 2026-05-05 03:51 | -37.88528 | 147.24030 | 2011 ft | 142 kts | 12° |
| 2026-05-05 03:51 | -37.87608 | 147.24394 | 2009 ft | 137 kts | 12° |
| 2026-05-05 03:52 | -37.86687 | 147.24771 | 2011 ft | 141 kts | 12° |
| 2026-05-05 03:52 | -37.85756 | 147.25167 | 2012 ft | 141 kts | 12° |
| 2026-05-05 03:52 | -37.84835 | 147.25551 | 2015 ft | 141 kts | 12° |
| 2026-05-05 03:52 | -37.83896 | 147.25942 | 2013 ft | 142 kts | 12° |
| 2026-05-05 03:53 | -37.82962 | 147.26340 | 2019 ft | 142 kts | 12° |
| 2026-05-05 03:53 | -37.82010 | 147.26737 | 2016 ft | 142 kts | 12° |
| 2026-05-05 03:53 | -37.81074 | 147.27117 | 2012 ft | 140 kts | 12° |
| 2026-05-05 03:53 | -37.80145 | 147.27499 | 2011 ft | 140 kts | 12° |
| 2026-05-05 03:54 | -37.79219 | 147.27876 | 2009 ft | 139 kts | 12° |
| 2026-05-05 03:54 | -37.78293 | 147.28266 | 2012 ft | 141 kts | 12° |
| 2026-05-05 03:54 | -37.77360 | 147.28669 | 2013 ft | 141 kts | 12° |
| 2026-05-05 03:54 | -37.76432 | 147.29041 | 2006 ft | 138 kts | 360° |
| 2026-05-05 03:55 | -37.75588 | 147.28807 | 2006 ft | 117 kts | 304° |
| 2026-05-05 03:55 | -37.75071 | 147.28059 | 2011 ft | 116 kts | 293° |
| 2026-05-05 03:55 | -37.74600 | 147.27120 | 2008 ft | 126 kts | 295° |
| 2026-05-05 03:55 | -37.74239 | 147.26238 | 1998 ft | 111 kts | 289° |
| 2026-05-05 03:56 | -37.73991 | 147.25297 | 2008 ft | 121 kts | 285° |
| 2026-05-05 03:56 | -37.73746 | 147.24326 | 1995 ft | 115 kts | 280° |
| 2026-05-05 03:56 | -37.73549 | 147.23354 | 1982 ft | 119 kts | 285° |
| 2026-05-05 03:56 | -37.73142 | 147.22360 | 1544 ft | 128 kts | 293° |
| 2026-05-05 03:57 | -37.72732 | 147.21341 | 1528 ft | 132 kts | 293° |
| 2026-05-05 03:57 | -37.72317 | 147.20337 | 1545 ft | 130 kts | 293° |
| 2026-05-05 03:57 | -37.71890 | 147.19324 | 1582 ft | 131 kts | 293° |
| 2026-05-05 03:57 | -37.71461 | 147.18313 | 1588 ft | 132 kts | 293° |
| 2026-05-05 03:58 | -37.71030 | 147.17295 | 1569 ft | 131 kts | 294° |
| 2026-05-05 03:58 | -37.70615 | 147.16267 | 1538 ft | 126 kts | 293° |
| 2026-05-05 03:58 | -37.70247 | 147.15301 | 1375 ft | 121 kts | 293° |
| 2026-05-05 03:58 | -37.69795 | 147.14398 | 1157 ft | 123 kts | 305° |
| 2026-05-05 03:59 | -37.69198 | 147.13597 | 961 ft | 136 kts | 314° |
| 2026-05-05 03:59 | -37.68320 | 147.12946 | 853 ft | 156 kts | 343° |
| 2026-05-05 03:59 | -37.67436 | 147.12490 | 905 ft | 119 kts | 318° |
| 2026-05-05 03:59 | -37.66768 | 147.11723 | 1051 ft | 134 kts | 311° |
| 2026-05-05 04:00 | -37.66322 | 147.10694 | 1443 ft | 136 kts | 293° |
| 2026-05-05 04:00 | -37.65846 | 147.09614 | 1180 ft | 133 kts | 300° |
| 2026-05-05 04:00 | -37.65201 | 147.09001 | 1216 ft | 125 kts | 355° |
| 2026-05-05 04:00 | -37.64337 | 147.08878 | 1530 ft | 117 kts | 326° |
| 2026-05-05 04:01 | -37.63815 | 147.07997 | 1788 ft | 138 kts | 307° |
| 2026-05-05 04:01 | -37.63266 | 147.07034 | 2005 ft | 134 kts | 323° |
| 2026-05-05 04:01 | -37.62471 | 147.06356 | 2215 ft | 145 kts | 317° |
| 2026-05-05 04:01 | -37.62120 | 147.05223 | 1986 ft | 141 kts | 281° |
| 2026-05-05 04:02 | -37.61637 | 147.04304 | 1840 ft | 130 kts | 308° |
| 2026-05-05 04:02 | -37.61386 | 147.03201 | 1766 ft | 138 kts | 273° |
| 2026-05-05 04:02 | -37.61374 | 147.01999 | 1781 ft | 122 kts | 266° |
| 2026-05-05 04:02 | -37.61445 | 147.01081 | 2016 ft | 109 kts | 272° |
| 2026-05-05 04:03 | -37.61414 | 147.00102 | 2378 ft | 119 kts | 282° |
| 2026-05-05 04:03 | -37.61059 | 146.98984 | 1740 ft | 157 kts | 312° |
| 2026-05-05 04:03 | -37.60197 | 146.98140 | 1532 ft | 154 kts | 337° |
| 2026-05-05 04:03 | -37.59218 | 146.97974 | 1691 ft | 139 kts | 7° |
| 2026-05-05 04:04 | -37.58286 | 146.97851 | 2011 ft | 122 kts | 301° |
| 2026-05-05 04:04 | -37.58004 | 146.96799 | 2189 ft | 140 kts | 277° |
| 2026-05-05 04:04 | -37.57855 | 146.95647 | 2636 ft | 132 kts | 303° |
| 2026-05-05 04:04 | -37.57390 | 146.94584 | 2811 ft | 145 kts | 302° |
| 2026-05-05 04:05 | -37.56896 | 146.93468 | 2782 ft | 158 kts | 314° |
| 2026-05-05 04:05 | -37.55946 | 146.92640 | 2214 ft | 174 kts | 356° |
| 2026-05-05 04:05 | -37.54803 | 146.92429 | 2274 ft | 155 kts | 307° |
| 2026-05-05 04:05 | -37.54208 | 146.91323 | 2365 ft | 154 kts | 296° |
| 2026-05-05 04:06 | -37.53721 | 146.90083 | 2513 ft | 157 kts | 310° |
| 2026-05-05 04:06 | -37.52869 | 146.89265 | 2776 ft | 162 kts | 346° |
| 2026-05-05 04:06 | -37.51753 | 146.89088 | 3029 ft | 157 kts | 338° |
| 2026-05-05 04:06 | -37.50974 | 146.88344 | 3811 ft | 135 kts | 309° |
| 2026-05-05 04:07 | -37.50287 | 146.87525 | 4389 ft | 136 kts | 346° |
| 2026-05-05 04:07 | -37.49310 | 146.87775 | 4739 ft | 162 kts | 28° |
| 2026-05-05 04:07 | -37.48219 | 146.88467 | 4613 ft | 185 kts | 30° |
| 2026-05-05 04:07 | -37.47053 | 146.89255 | 4726 ft | 195 kts | 29° |
| 2026-05-05 04:08 | -37.45842 | 146.90059 | 4774 ft | 195 kts | 28° |
| 2026-05-05 04:08 | -37.44686 | 146.90874 | 4112 ft | 192 kts | 27° |
| 2026-05-05 04:08 | -37.43550 | 146.91671 | 3546 ft | 168 kts | 27° |
| 2026-05-05 04:08 | -37.42666 | 146.92306 | 3932 ft | 121 kts | 29° |
| 2026-05-05 04:09 | -37.41972 | 146.92802 | 4685 ft | 116 kts | 32° |
| 2026-05-05 04:09 | -37.41238 | 146.93345 | 5098 ft | 135 kts | 31° |
| 2026-05-05 04:09 | -37.40329 | 146.94097 | 4650 ft | 174 kts | 34° |
| 2026-05-05 04:09 | -37.39337 | 146.95017 | 4144 ft | 175 kts | 36° |
| 2026-05-05 04:10 | -37.38398 | 146.95938 | 3951 ft | 172 kts | 36° |
| 2026-05-05 04:10 | -37.37429 | 146.96851 | 3524 ft | 175 kts | 36° |
| 2026-05-05 04:10 | -37.36460 | 146.97760 | 3258 ft | 173 kts | 36° |
| 2026-05-05 04:10 | -37.35511 | 146.98668 | 3090 ft | 170 kts | 36° |
| 2026-05-05 04:11 | -37.34586 | 146.99538 | 3001 ft | 155 kts | 36° |
| 2026-05-05 04:11 | -37.33811 | 147.00281 | 2975 ft | 126 kts | 36° |
| 2026-05-05 04:11 | -37.33129 | 147.00847 | 3012 ft | 102 kts | 31° |
| 2026-05-05 04:11 | -37.32686 | 147.01182 | 3119 ft | 52 kts | 31° |
| 2026-05-05 04:12 | -37.32172 | 147.01585 | 3224 ft | 132 kts | 31° |
| 2026-05-05 04:12 | -37.31258 | 147.02286 | 3450 ft | 177 kts | 31° |
| 2026-05-05 04:12 | -37.30181 | 147.03106 | 3734 ft | 180 kts | 31° |
| 2026-05-05 04:12 | -37.29126 | 147.03933 | 4249 ft | 178 kts | 31° |
| 2026-05-05 04:13 | -37.28105 | 147.04742 | 4397 ft | 168 kts | 31° |
| 2026-05-05 04:13 | -37.27161 | 147.05486 | 4424 ft | 149 kts | 30° |
| 2026-05-05 04:13 | -37.26275 | 147.06020 | 3926 ft | 134 kts | 19° |
| 2026-05-05 04:13 | -37.25394 | 147.06336 | 3695 ft | 127 kts | 11° |
| 2026-05-05 04:14 | -37.24567 | 147.06555 | 3554 ft | 122 kts | 10° |
| 2026-05-05 04:14 | -37.23664 | 147.06639 | 3331 ft | 133 kts | 355° |
| 2026-05-05 04:14 | -37.22712 | 147.06404 | 3153 ft | 145 kts | 341° |
| 2026-05-05 04:14 | -37.21774 | 147.05925 | 2976 ft | 148 kts | 339° |
| 2026-05-05 04:15 | -37.20822 | 147.05490 | 3146 ft | 139 kts | 341° |
| 2026-05-05 04:15 | -37.19875 | 147.05107 | 2895 ft | 143 kts | 345° |
| 2026-05-05 04:15 | -37.18909 | 147.04730 | 2932 ft | 152 kts | 344° |
| 2026-05-05 04:15 | -37.17835 | 147.04307 | 3075 ft | 168 kts | 344° |
| 2026-05-05 04:16 | -37.16696 | 147.04006 | 3257 ft | 164 kts | 2° |
| 2026-05-05 04:16 | -37.15675 | 147.04432 | 3672 ft | 154 kts | 33° |
| 2026-05-05 04:16 | -37.14763 | 147.05111 | 3703 ft | 144 kts | 36° |
| 2026-05-05 04:16 | -37.13884 | 147.05720 | 3499 ft | 166 kts | 33° |
| 2026-05-05 04:17 | -37.12858 | 147.06340 | 3450 ft | 157 kts | 27° |
| 2026-05-05 04:17 | -37.11890 | 147.06764 | 3636 ft | 138 kts | 33° |
| 2026-05-05 04:17 | -37.11084 | 147.07376 | 4173 ft | 143 kts | 36° |
| 2026-05-05 04:17 | -37.10207 | 147.08122 | 4693 ft | 159 kts | 36° |
| 2026-05-05 04:18 | -37.09282 | 147.08886 | 5556 ft | 160 kts | 36° |
| 2026-05-05 04:18 | -37.08417 | 147.09661 | 5658 ft | 141 kts | 42° |
| 2026-05-05 04:18 | -37.07821 | 147.10437 | 5529 ft | 83 kts | 116° |
| 2026-05-05 04:18 | -37.07952 | 147.10856 | 5354 ft | 31 kts | 211° |
| 2026-05-05 04:19 | -37.07991 | 147.10813 | 5264 ft | 0 kts | 272° |
| 2026-05-05 04:19 | -37.07994 | 147.10811 | 5279 ft | 2 kts | 264° |
| 2026-05-05 04:19 | -37.07952 | 147.10712 | 5364 ft | 36 kts | 268° |
| 2026-05-05 04:19 | -37.07683 | 147.10272 | 5502 ft | 81 kts | 338° |
| 2026-05-05 04:20 | -37.06975 | 147.10592 | 5545 ft | 131 kts | 31° |
| 2026-05-05 04:20 | -37.06193 | 147.11107 | 5700 ft | 124 kts | 32° |
| 2026-05-05 04:20 | -37.05384 | 147.11656 | 6059 ft | 119 kts | 30° |
| 2026-05-05 04:20 | -37.04668 | 147.12151 | 5913 ft | 119 kts | 31° |
| 2026-05-05 04:21 | -37.03897 | 147.12708 | 5883 ft | 130 kts | 32° |
| 2026-05-05 04:21 | -37.03185 | 147.13237 | 5885 ft | 118 kts | 33° |
| 2026-05-05 04:21 | -37.02486 | 147.13776 | 5883 ft | 118 kts | 34° |
| 2026-05-05 04:21 | -37.01789 | 147.14332 | 5877 ft | 120 kts | 34° |
| 2026-05-05 04:22 | -37.01077 | 147.14921 | 5858 ft | 126 kts | 36° |
| 2026-05-05 04:22 | -37.00376 | 147.15521 | 5879 ft | 121 kts | 37° |
| 2026-05-05 04:22 | -36.99907 | 147.15931 | 5875 ft | 121 kts | 37° |
| 2026-05-05 04:22 | -36.99221 | 147.16544 | 5867 ft | 121 kts | 38° |
| 2026-05-05 04:23 | -36.98542 | 147.17167 | 5866 ft | 121 kts | 39° |
| 2026-05-05 04:23 | -36.97876 | 147.17798 | 5866 ft | 122 kts | 40° |
| 2026-05-05 04:23 | -36.97167 | 147.18382 | 5876 ft | 122 kts | 33° |
| 2026-05-05 04:23 | -36.96449 | 147.18947 | 5869 ft | 121 kts | 34° |
| 2026-05-05 04:24 | -36.95747 | 147.19519 | 5882 ft | 122 kts | 36° |
| 2026-05-05 04:24 | -36.94987 | 147.20141 | 6419 ft | 137 kts | 33° |
| 2026-05-05 04:24 | -36.94069 | 147.20629 | 6470 ft | 147 kts | 21° |
| 2026-05-05 04:25 | -36.92257 | 147.21426 | 6464 ft | 134 kts | 21° |
| 2026-05-05 04:25 | -36.91390 | 147.21826 | 6467 ft | 133 kts | 22° |
| 2026-05-05 04:25 | -36.90467 | 147.22213 | 6468 ft | 146 kts | 15° |
| 2026-05-05 04:25 | -36.89445 | 147.22545 | 6453 ft | 159 kts | 15° |
| 2026-05-05 04:26 | -36.88339 | 147.22911 | 6457 ft | 168 kts | 15° |
| 2026-05-05 04:26 | -36.87187 | 147.23289 | 6453 ft | 174 kts | 14° |
| 2026-05-05 04:26 | -36.86000 | 147.23680 | 6455 ft | 178 kts | 14° |
| 2026-05-05 04:26 | -36.84816 | 147.24062 | 6463 ft | 179 kts | 14° |
| 2026-05-05 04:27 | -36.83604 | 147.24452 | 6468 ft | 181 kts | 14° |
| 2026-05-05 04:27 | -36.82388 | 147.24848 | 6484 ft | 180 kts | 14° |
| 2026-05-05 04:27 | -36.81197 | 147.25241 | 6478 ft | 174 kts | 14° |
| 2026-05-05 04:27 | -36.80038 | 147.25626 | 6474 ft | 171 kts | 14° |
| 2026-05-05 04:28 | -36.78934 | 147.25925 | 6477 ft | 146 kts | 9° |
| 2026-05-05 04:28 | -36.78056 | 147.26117 | 6488 ft | 116 kts | 10° |
| 2026-05-05 04:28 | -36.77316 | 147.26272 | 6465 ft | 105 kts | 10° |
| 2026-05-05 04:28 | -36.76584 | 147.26423 | 6457 ft | 109 kts | 9° |
| 2026-05-05 04:29 | -36.75822 | 147.26588 | 6532 ft | 122 kts | 9° |
| 2026-05-05 04:29 | -36.74921 | 147.26792 | 6483 ft | 140 kts | 9° |
| 2026-05-05 04:29 | -36.73848 | 147.27030 | 6480 ft | 166 kts | 9° |
| 2026-05-05 04:29 | -36.72656 | 147.27254 | 6488 ft | 178 kts | 8° |
| 2026-05-05 04:30 | -36.71407 | 147.27489 | 6483 ft | 183 kts | 8° |
| 2026-05-05 04:30 | -36.70126 | 147.27728 | 6480 ft | 187 kts | 8° |
| 2026-05-05 04:30 | -36.68825 | 147.27968 | 6472 ft | 189 kts | 8° |
| 2026-05-05 04:30 | -36.67518 | 147.28207 | 6482 ft | 190 kts | 8° |
| 2026-05-05 04:31 | -36.66210 | 147.28447 | 6482 ft | 190 kts | 8° |
| 2026-05-05 04:31 | -36.64893 | 147.28632 | 6478 ft | 191 kts | 2° |
| 2026-05-05 04:31 | -36.63568 | 147.28693 | 6474 ft | 191 kts | 1° |
| 2026-05-05 04:31 | -36.62245 | 147.28754 | 6481 ft | 190 kts | 1° |
| 2026-05-05 04:32 | -36.60924 | 147.28815 | 6477 ft | 190 kts | 1° |
| 2026-05-05 04:32 | -36.59604 | 147.28873 | 6481 ft | 189 kts | 1° |
| 2026-05-05 04:32 | -36.58287 | 147.28936 | 6483 ft | 190 kts | 2° |
| 2026-05-05 04:32 | -36.56970 | 147.29027 | 6481 ft | 190 kts | 3° |
| 2026-05-05 04:33 | -36.55654 | 147.29135 | 6484 ft | 189 kts | 3° |
| 2026-05-05 04:33 | -36.54339 | 147.29239 | 6482 ft | 190 kts | 3° |
| 2026-05-05 04:33 | -36.53018 | 147.29339 | 6483 ft | 190 kts | 3° |
| 2026-05-05 04:33 | -36.51723 | 147.29439 | 6486 ft | 189 kts | 3° |
| 2026-05-05 04:34 | -36.50411 | 147.29551 | 6482 ft | 189 kts | 3° |
| 2026-05-05 04:34 | -36.49103 | 147.29661 | 6489 ft | 188 kts | 3° |
| 2026-05-05 04:34 | -36.47792 | 147.29775 | 6480 ft | 188 kts | 3° |
| 2026-05-05 04:34 | -36.46480 | 147.29891 | 6485 ft | 188 kts | 3° |
| 2026-05-05 04:35 | -36.45170 | 147.30009 | 6489 ft | 189 kts | 3° |
| 2026-05-05 04:35 | -36.43857 | 147.30127 | 6486 ft | 189 kts | 3° |
| 2026-05-05 04:35 | -36.42541 | 147.30244 | 6492 ft | 190 kts | 3° |
| 2026-05-05 04:35 | -36.41223 | 147.30363 | 6492 ft | 190 kts | 3° |
| 2026-05-05 04:36 | -36.39907 | 147.30475 | 6491 ft | 190 kts | 3° |
| 2026-05-05 04:36 | -36.38589 | 147.30586 | 6488 ft | 189 kts | 3° |
| 2026-05-05 04:36 | -36.37274 | 147.30696 | 6489 ft | 189 kts | 3° |
| 2026-05-05 04:36 | -36.35960 | 147.30807 | 6491 ft | 189 kts | 3° |
| 2026-05-05 04:37 | -36.34644 | 147.30920 | 6492 ft | 189 kts | 3° |
| 2026-05-05 04:37 | -36.33334 | 147.31035 | 6493 ft | 189 kts | 3° |
| 2026-05-05 04:37 | -36.32019 | 147.31150 | 6488 ft | 189 kts | 3° |
| 2026-05-05 04:37 | -36.30704 | 147.31265 | 6494 ft | 190 kts | 3° |
| 2026-05-05 04:38 | -36.29400 | 147.31380 | 6490 ft | 190 kts | 3° |
| 2026-05-05 04:38 | -36.28062 | 147.31498 | 6497 ft | 190 kts | 3° |
| 2026-05-05 04:38 | -36.26756 | 147.31612 | 6500 ft | 191 kts | 3° |
| 2026-05-05 04:38 | -36.25429 | 147.31729 | 6501 ft | 191 kts | 3° |
| 2026-05-05 04:39 | -36.24102 | 147.31909 | 6499 ft | 192 kts | 9° |
| 2026-05-05 04:39 | -36.22793 | 147.32207 | 6492 ft | 191 kts | 10° |
| 2026-05-05 04:39 | -36.21481 | 147.32500 | 6493 ft | 191 kts | 10° |
| 2026-05-05 04:39 | -36.20171 | 147.32794 | 6499 ft | 192 kts | 10° |
| 2026-05-05 04:40 | -36.18857 | 147.33092 | 6502 ft | 192 kts | 10° |
| 2026-05-05 04:40 | -36.17542 | 147.33389 | 6493 ft | 192 kts | 10° |
| 2026-05-05 04:40 | -36.16228 | 147.33686 | 6496 ft | 192 kts | 10° |
| 2026-05-05 04:40 | -36.14913 | 147.33985 | 6502 ft | 192 kts | 10° |
| 2026-05-05 04:41 | -36.13598 | 147.34282 | 6502 ft | 192 kts | 10° |
| 2026-05-05 04:41 | -36.12282 | 147.34581 | 6494 ft | 192 kts | 10° |
| 2026-05-05 04:41 | -36.10968 | 147.34877 | 6486 ft | 191 kts | 10° |
| 2026-05-05 04:41 | -36.09655 | 147.35170 | 6496 ft | 192 kts | 10° |
| 2026-05-05 04:42 | -36.08337 | 147.35468 | 6490 ft | 193 kts | 10° |
| 2026-05-05 04:42 | -36.07017 | 147.35761 | 6495 ft | 193 kts | 10° |
| 2026-05-05 04:42 | -36.05695 | 147.36057 | 6496 ft | 193 kts | 10° |
| 2026-05-05 04:42 | -36.04378 | 147.36352 | 6497 ft | 193 kts | 10° |
| 2026-05-05 04:43 | -36.03060 | 147.36652 | 6500 ft | 193 kts | 10° |
| 2026-05-05 04:43 | -36.01740 | 147.36952 | 6501 ft | 193 kts | 10° |
| 2026-05-05 04:43 | -36.00436 | 147.37251 | 6480 ft | 192 kts | 10° |
| 2026-05-05 04:43 | -35.99099 | 147.37549 | 6463 ft | 194 kts | 10° |
| 2026-05-05 04:44 | -35.97782 | 147.37849 | 6438 ft | 194 kts | 10° |
| 2026-05-05 04:44 | -35.96457 | 147.38076 | 6432 ft | 193 kts | 5° |
| 2026-05-05 04:44 | -35.95129 | 147.38232 | 6434 ft | 192 kts | 5° |
| 2026-05-05 04:44 | -35.93808 | 147.38382 | 6367 ft | 191 kts | 5° |
| 2026-05-05 04:45 | -35.92484 | 147.38529 | 6524 ft | 187 kts | 5° |
| 2026-05-05 04:45 | -35.91171 | 147.38675 | 6466 ft | 191 kts | 5° |
| 2026-05-05 04:45 | -35.89856 | 147.38817 | 6437 ft | 191 kts | 5° |
| 2026-05-05 04:45 | -35.88540 | 147.38962 | 6433 ft | 191 kts | 5° |
| 2026-05-05 04:46 | -35.87224 | 147.39109 | 6438 ft | 191 kts | 5° |
| 2026-05-05 04:46 | -35.85906 | 147.39255 | 6413 ft | 190 kts | 5° |
| 2026-05-05 04:46 | -35.84588 | 147.39403 | 6407 ft | 190 kts | 5° |
| 2026-05-05 04:46 | -35.83272 | 147.39549 | 6406 ft | 190 kts | 5° |
| 2026-05-05 04:47 | -35.81954 | 147.39696 | 6405 ft | 190 kts | 5° |
| 2026-05-05 04:47 | -35.80639 | 147.39836 | 6404 ft | 189 kts | 5° |
| 2026-05-05 04:47 | -35.79328 | 147.39978 | 6406 ft | 189 kts | 5° |
| 2026-05-05 04:47 | -35.78011 | 147.40120 | 6406 ft | 189 kts | 5° |
| 2026-05-05 04:48 | -35.76714 | 147.40258 | 6408 ft | 189 kts | 5° |
| 2026-05-05 04:48 | -35.75402 | 147.40403 | 6407 ft | 189 kts | 5° |
| 2026-05-05 04:48 | -35.74087 | 147.40547 | 6406 ft | 190 kts | 5° |
| 2026-05-05 04:48 | -35.72774 | 147.40693 | 6408 ft | 189 kts | 5° |
| 2026-05-05 04:49 | -35.71460 | 147.40838 | 6408 ft | 189 kts | 5° |
| 2026-05-05 04:49 | -35.70146 | 147.40982 | 6412 ft | 189 kts | 5° |
| 2026-05-05 04:49 | -35.68833 | 147.41126 | 6411 ft | 190 kts | 5° |
| 2026-05-05 04:49 | -35.67521 | 147.41264 | 6407 ft | 189 kts | 5° |
| 2026-05-05 04:50 | -35.66211 | 147.41402 | 6408 ft | 189 kts | 5° |
| 2026-05-05 04:50 | -35.64901 | 147.41543 | 6408 ft | 189 kts | 5° |
| 2026-05-05 04:50 | -35.63590 | 147.41684 | 6410 ft | 189 kts | 5° |
| 2026-05-05 04:50 | -35.62296 | 147.41821 | 6412 ft | 189 kts | 5° |
| 2026-05-05 04:51 | -35.60987 | 147.41963 | 6413 ft | 189 kts | 5° |
| 2026-05-05 04:51 | -35.59676 | 147.42100 | 6412 ft | 189 kts | 5° |
| 2026-05-05 04:51 | -35.58367 | 147.42250 | 6412 ft | 189 kts | 5° |
| 2026-05-05 04:51 | -35.57060 | 147.42406 | 6413 ft | 189 kts | 5° |
| 2026-05-05 04:52 | -35.55752 | 147.42566 | 6415 ft | 189 kts | 5° |
| 2026-05-05 04:52 | -35.54449 | 147.42723 | 6421 ft | 187 kts | 5° |
| 2026-05-05 04:52 | -35.53215 | 147.42874 | 6253 ft | 174 kts | 5° |
| 2026-05-05 04:52 | -35.52014 | 147.43021 | 6051 ft | 174 kts | 5° |
| 2026-05-05 04:53 | -35.50807 | 147.43169 | 5802 ft | 174 kts | 5° |
| 2026-05-05 04:53 | -35.49596 | 147.43329 | 5595 ft | 175 kts | 5° |
| 2026-05-05 04:53 | -35.48410 | 147.43484 | 5453 ft | 171 kts | 5° |
| 2026-05-05 04:53 | -35.47194 | 147.43641 | 5114 ft | 179 kts | 5° |
| 2026-05-05 04:54 | -35.45935 | 147.43794 | 4699 ft | 184 kts | 5° |
| 2026-05-05 04:54 | -35.44661 | 147.43945 | 4359 ft | 183 kts | 5° |
| 2026-05-05 04:54 | -35.43413 | 147.44097 | 4093 ft | 181 kts | 5° |
| 2026-05-05 04:54 | -35.42163 | 147.44253 | 3790 ft | 180 kts | 5° |
| 2026-05-05 04:55 | -35.40922 | 147.44415 | 3491 ft | 179 kts | 5° |
| 2026-05-05 04:55 | -35.39688 | 147.44579 | 3246 ft | 177 kts | 4° |
| 2026-05-05 04:55 | -35.38465 | 147.44662 | 3056 ft | 175 kts | 1° |
| 2026-05-05 04:55 | -35.37257 | 147.44737 | 2906 ft | 172 kts | 1° |
| 2026-05-05 04:56 | -35.36070 | 147.44822 | 2797 ft | 170 kts | 1° |
| 2026-05-05 04:56 | -35.34898 | 147.44902 | 2710 ft | 167 kts | 1° |
| 2026-05-05 04:56 | -35.33747 | 147.44975 | 2666 ft | 164 kts | 1° |
| 2026-05-05 04:56 | -35.32606 | 147.45050 | 2638 ft | 164 kts | 2° |
| 2026-05-05 04:57 | -35.31464 | 147.45136 | 2567 ft | 158 kts | 2° |
| 2026-05-05 04:57 | -35.30430 | 147.45203 | 2537 ft | 146 kts | 2° |
| 2026-05-05 04:57 | -35.29362 | 147.45269 | 2327 ft | 156 kts | 1° |
| 2026-05-05 04:57 | -35.28328 | 147.45288 | 2213 ft | 142 kts | 359° |
| 2026-05-05 04:58 | -35.27388 | 147.45296 | 2237 ft | 130 kts | 360° |
| 2026-05-05 04:58 | -35.26465 | 147.45310 | 2150 ft | 136 kts | 0° |
| 2026-05-05 04:58 | -35.25511 | 147.45344 | 2118 ft | 139 kts | 2° |
| 2026-05-05 04:58 | -35.24540 | 147.45386 | 2033 ft | 142 kts | 1° |
| 2026-05-05 04:59 | -35.23567 | 147.45441 | 1981 ft | 134 kts | 3° |
| 2026-05-05 04:59 | -35.22686 | 147.45506 | 2098 ft | 124 kts | 3° |
| 2026-05-05 04:59 | -35.21855 | 147.45581 | 2233 ft | 117 kts | 4° |
| 2026-05-05 04:59 | -35.21055 | 147.45668 | 2371 ft | 113 kts | 6° |
| 2026-05-05 05:00 | -35.20271 | 147.45766 | 2195 ft | 116 kts | 7° |
| 2026-05-05 05:00 | -35.19455 | 147.45884 | 1842 ft | 120 kts | 7° |
| 2026-05-05 05:00 | -35.18647 | 147.46101 | 1761 ft | 116 kts | 34° |
| 2026-05-05 05:00 | -35.18061 | 147.46675 | 1835 ft | 107 kts | 69° |
| 2026-05-05 05:01 | -35.17688 | 147.47528 | 1767 ft | 119 kts | 67° |
| 2026-05-05 05:01 | -35.17356 | 147.48435 | 1786 ft | 112 kts | 67° |
| 2026-05-05 05:01 | -35.17036 | 147.49263 | 1758 ft | 102 kts | 68° |
| 2026-05-05 05:01 | -35.16575 | 147.49921 | 1668 ft | 106 kts | 26° |
| 2026-05-05 05:02 | -35.15860 | 147.49935 | 1495 ft | 106 kts | 328° |
| 2026-05-05 05:02 | -35.15450 | 147.49263 | 1364 ft | 97 kts | 278° |
| 2026-05-05 05:02 | -35.15600 | 147.48545 | 1114 ft | 79 kts | 249° |
| 2026-05-05 05:02 | -35.15842 | 147.48026 | 962 ft | 65 kts | 253° |
| 2026-05-05 05:03 | -35.16026 | 147.47574 | 840 ft | 55 kts | 252° |
| 2026-05-05 05:03 | -35.16178 | 147.47218 | 754 ft | 32 kts | 253° |
| 2026-05-05 05:03 | -35.16215 | 147.47123 | 725 ft | 10 kts | 251° |
| 2026-05-05 05:03 | -35.16255 | 147.47029 | 726 ft | 11 kts | 245° |
| 2026-05-05 05:04 | -35.16226 | 147.46961 | 720 ft | 11 kts | 338° |
| 2026-05-05 05:04 | -35.16206 | 147.46948 | 717 ft | 0 kts | 342° |
| 2026-05-05 05:04 | -35.16204 | 147.46948 | 723 ft | 4 kts | 338° |
| 2026-05-05 05:04 | -35.16157 | 147.46915 | 723 ft | 12 kts | 333° |
| 2026-05-05 05:05 | -35.16091 | 147.46847 | 727 ft | 14 kts | 332° |
| 2026-05-05 05:05 | -35.16033 | 147.46836 | 721 ft | 10 kts | 59° |
| 2026-05-05 05:05 | -35.15997 | 147.46830 | 724 ft | 4 kts | 230° |
| 2026-05-05 05:05 | -35.16008 | 147.46829 | 717 ft | 0 kts | 153° |
| 2026-05-05 05:06 | -35.16018 | 147.46833 | 720 ft | 6 kts | 156° |
| 2026-05-05 05:06 | -35.16051 | 147.46848 | 720 ft | 12 kts | 156° |
| 2026-05-05 05:06 | -35.16130 | 147.46899 | 722 ft | 9 kts | 155° |
| 2026-05-05 05:06 | -35.16192 | 147.46938 | 719 ft | 15 kts | 155° |
| 2026-05-05 05:07 | -35.16250 | 147.46977 | 718 ft | 11 kts | 155° |
| 2026-05-05 05:07 | -35.16281 | 147.46982 | 718 ft | 8 kts | 249° |
| 2026-05-05 05:07 | -35.16417 | 147.46679 | 729 ft | 74 kts | 252° |
| 2026-05-05 05:07 | -35.16699 | 147.46013 | 966 ft | 90 kts | 250° |
| 2026-05-05 05:08 | -35.17215 | 147.45712 | 1238 ft | 97 kts | 175° |
| 2026-05-05 05:08 | -35.17550 | 147.46414 | 1148 ft | 109 kts | 88° |
| 2026-05-05 05:08 | -35.17164 | 147.47172 | 1298 ft | 104 kts | 63° |
| 2026-05-05 05:08 | -35.16731 | 147.47880 | 1527 ft | 104 kts | 65° |
| 2026-05-05 05:09 | -35.16293 | 147.48563 | 1856 ft | 105 kts | 67° |
| 2026-05-05 05:09 | -35.15843 | 147.49372 | 2245 ft | 123 kts | 75° |
| 2026-05-05 05:09 | -35.15546 | 147.50398 | 2168 ft | 138 kts | 85° |
| 2026-05-05 05:09 | -35.15353 | 147.51394 | 2157 ft | 96 kts | 83° |
| 2026-05-05 05:10 | -35.15207 | 147.52141 | 2422 ft | 96 kts | 85° |
| 2026-05-05 05:10 | -35.15015 | 147.53029 | 2580 ft | 118 kts | 80° |
| 2026-05-05 05:10 | -35.14798 | 147.54050 | 2780 ft | 129 kts | 80° |
| 2026-05-05 05:10 | -35.14655 | 147.54773 | 2869 ft | 135 kts | 81° |
| 2026-05-05 05:11 | -35.14442 | 147.55924 | 2913 ft | 142 kts | 82° |
| 2026-05-05 05:11 | -35.14232 | 147.57119 | 3100 ft | 144 kts | 82° |
| 2026-05-05 05:11 | -35.14024 | 147.58306 | 3389 ft | 143 kts | 83° |
| 2026-05-05 05:11 | -35.13732 | 147.59903 | 3526 ft | 146 kts | 82° |
| 2026-05-05 05:12 | -35.13497 | 147.61117 | 3536 ft | 148 kts | 79° |
| 2026-05-05 05:12 | -35.13326 | 147.61946 | 3549 ft | 149 kts | 79° |
| 2026-05-05 05:12 | -35.13076 | 147.63184 | 3530 ft | 151 kts | 79° |
| 2026-05-05 05:12 | -35.12819 | 147.64431 | 3523 ft | 152 kts | 79° |
| 2026-05-05 05:13 | -35.12573 | 147.65666 | 3522 ft | 152 kts | 79° |
| 2026-05-05 05:13 | -35.12331 | 147.66922 | 3519 ft | 152 kts | 79° |
| 2026-05-05 05:13 | -35.12085 | 147.68180 | 3527 ft | 152 kts | 79° |
| 2026-05-05 05:13 | -35.11838 | 147.69441 | 3525 ft | 153 kts | 79° |
| 2026-05-05 05:14 | -35.11590 | 147.70706 | 3524 ft | 153 kts | 79° |
| 2026-05-05 05:14 | -35.11344 | 147.71965 | 3525 ft | 152 kts | 79° |
| 2026-05-05 05:14 | -35.11100 | 147.73224 | 3525 ft | 152 kts | 79° |
| 2026-05-05 05:14 | -35.10849 | 147.74483 | 3524 ft | 152 kts | 79° |
| 2026-05-05 05:15 | -35.10597 | 147.75738 | 3528 ft | 152 kts | 79° |
| 2026-05-05 05:15 | -35.10346 | 147.76995 | 3526 ft | 152 kts | 79° |
| 2026-05-05 05:15 | -35.10090 | 147.78250 | 3526 ft | 152 kts | 79° |
| 2026-05-05 05:15 | -35.09839 | 147.79492 | 3525 ft | 153 kts | 79° |
| 2026-05-05 05:16 | -35.09589 | 147.80754 | 3523 ft | 153 kts | 79° |
| 2026-05-05 05:16 | -35.09342 | 147.82020 | 3519 ft | 153 kts | 79° |
| 2026-05-05 05:16 | -35.09093 | 147.83286 | 3521 ft | 154 kts | 79° |
| 2026-05-05 05:16 | -35.08751 | 147.84528 | 3522 ft | 155 kts | 71° |
| 2026-05-05 05:17 | -35.08365 | 147.85751 | 3521 ft | 155 kts | 71° |
| 2026-05-05 05:17 | -35.07968 | 147.87014 | 3519 ft | 163 kts | 71° |
| 2026-05-05 05:17 | -35.07549 | 147.88336 | 3518 ft | 170 kts | 71° |
| 2026-05-05 05:17 | -35.07122 | 147.89695 | 3515 ft | 173 kts | 71° |
| 2026-05-05 05:18 | -35.06685 | 147.91079 | 3519 ft | 175 kts | 71° |
| 2026-05-05 05:18 | -35.06246 | 147.92468 | 3516 ft | 176 kts | 71° |
| 2026-05-05 05:18 | -35.05811 | 147.93875 | 3520 ft | 178 kts | 71° |
| 2026-05-05 05:18 | -35.05373 | 147.95287 | 3521 ft | 178 kts | 71° |
| 2026-05-05 05:19 | -35.04926 | 147.96696 | 3522 ft | 179 kts | 71° |
| 2026-05-05 05:19 | -35.04483 | 147.98116 | 3520 ft | 179 kts | 71° |
| 2026-05-05 05:19 | -35.04068 | 147.99543 | 3516 ft | 178 kts | 75° |
| 2026-05-05 05:19 | -35.03687 | 148.00984 | 3518 ft | 178 kts | 74° |
| 2026-05-05 05:20 | -35.03289 | 148.02400 | 3520 ft | 179 kts | 73° |
| 2026-05-05 05:20 | -35.02864 | 148.03822 | 3515 ft | 178 kts | 71° |
| 2026-05-05 05:20 | -35.02416 | 148.05229 | 3516 ft | 178 kts | 70° |
| 2026-05-05 05:20 | -35.01947 | 148.06620 | 3517 ft | 177 kts | 69° |
| 2026-05-05 05:21 | -35.01457 | 148.07995 | 3524 ft | 176 kts | 68° |
| 2026-05-05 05:21 | -35.00946 | 148.09357 | 3519 ft | 177 kts | 67° |
| 2026-05-05 05:21 | -35.00413 | 148.10712 | 3518 ft | 178 kts | 66° |
| 2026-05-05 05:21 | -34.99857 | 148.12059 | 3521 ft | 178 kts | 64° |
| 2026-05-05 05:22 | -34.99278 | 148.13398 | 3513 ft | 178 kts | 63° |
| 2026-05-05 05:22 | -34.98682 | 148.14715 | 3515 ft | 178 kts | 62° |
| 2026-05-05 05:22 | -34.98063 | 148.16026 | 3511 ft | 178 kts | 61° |
| 2026-05-05 05:22 | -34.97432 | 148.17325 | 3511 ft | 178 kts | 60° |
| 2026-05-05 05:23 | -34.96810 | 148.18630 | 3512 ft | 178 kts | 60° |
| 2026-05-05 05:23 | -34.96200 | 148.19921 | 3517 ft | 178 kts | 60° |
| 2026-05-05 05:23 | -34.95580 | 148.21234 | 3522 ft | 179 kts | 60° |
| 2026-05-05 05:23 | -34.94960 | 148.22556 | 3521 ft | 180 kts | 62° |
| 2026-05-05 05:24 | -34.94415 | 148.23929 | 3520 ft | 179 kts | 64° |
| 2026-05-05 05:24 | -34.93874 | 148.25295 | 3515 ft | 179 kts | 64° |
| 2026-05-05 05:24 | -34.93336 | 148.26665 | 3516 ft | 180 kts | 64° |
| 2026-05-05 05:24 | -34.92897 | 148.28097 | 3512 ft | 181 kts | 75° |
| 2026-05-05 05:25 | -34.92534 | 148.29558 | 3515 ft | 180 kts | 75° |
| 2026-05-05 05:25 | -34.92167 | 148.31019 | 3516 ft | 181 kts | 75° |
| 2026-05-05 05:25 | -34.91809 | 148.32490 | 3516 ft | 181 kts | 75° |
| 2026-05-05 05:25 | -34.91455 | 148.33967 | 3516 ft | 181 kts | 75° |
| 2026-05-05 05:26 | -34.91105 | 148.35431 | 3513 ft | 181 kts | 75° |
| 2026-05-05 05:26 | -34.90753 | 148.36902 | 3506 ft | 181 kts | 75° |
| 2026-05-05 05:26 | -34.90414 | 148.38326 | 3508 ft | 180 kts | 75° |
| 2026-05-05 05:26 | -34.90073 | 148.39789 | 3509 ft | 180 kts | 75° |
| 2026-05-05 05:27 | -34.89726 | 148.41249 | 3511 ft | 179 kts | 75° |
| 2026-05-05 05:27 | -34.89381 | 148.42706 | 3519 ft | 179 kts | 75° |
| 2026-05-05 05:27 | -34.88672 | 148.45590 | 3525 ft | 180 kts | 74° |
| 2026-05-05 05:28 | -34.88319 | 148.46887 | 3578 ft | 144 kts | 75° |
| 2026-05-05 05:28 | -34.88017 | 148.47997 | 3565 ft | 135 kts | 74° |
| 2026-05-05 05:28 | -34.87710 | 148.49193 | 3541 ft | 158 kts | 74° |
| 2026-05-05 05:28 | -34.87412 | 148.50542 | 3504 ft | 171 kts | 81° |
| 2026-05-05 05:29 | -34.87256 | 148.51988 | 3472 ft | 172 kts | 85° |
| 2026-05-05 05:29 | -34.87108 | 148.53437 | 3287 ft | 172 kts | 85° |
| 2026-05-05 05:29 | -34.86945 | 148.54922 | 3093 ft | 178 kts | 85° |
| 2026-05-05 05:29 | -34.86774 | 148.56388 | 2964 ft | 170 kts | 84° |
| 2026-05-05 05:30 | -34.86604 | 148.57762 | 3159 ft | 161 kts | 84° |
| 2026-05-05 05:30 | -34.86439 | 148.59098 | 3401 ft | 157 kts | 84° |
| 2026-05-05 05:30 | -34.86282 | 148.60395 | 3524 ft | 154 kts | 84° |
| 2026-05-05 05:30 | -34.86131 | 148.61738 | 3505 ft | 165 kts | 84° |
| 2026-05-05 05:31 | -34.85978 | 148.63106 | 3575 ft | 165 kts | 84° |
| 2026-05-05 05:31 | -34.85821 | 148.64507 | 3640 ft | 168 kts | 84° |
| 2026-05-05 05:31 | -34.85650 | 148.65918 | 3585 ft | 170 kts | 84° |
| 2026-05-05 05:31 | -34.85482 | 148.67361 | 3570 ft | 172 kts | 84° |
| 2026-05-05 05:32 | -34.85312 | 148.68798 | 3547 ft | 172 kts | 84° |
| 2026-05-05 05:32 | -34.85149 | 148.70232 | 3539 ft | 171 kts | 84° |
| 2026-05-05 05:32 | -34.84974 | 148.71658 | 3545 ft | 169 kts | 84° |
| 2026-05-05 05:32 | -34.84790 | 148.73072 | 3526 ft | 171 kts | 83° |
| 2026-05-05 05:33 | -34.84596 | 148.74496 | 3538 ft | 170 kts | 83° |
| 2026-05-05 05:33 | -34.84392 | 148.75912 | 3544 ft | 169 kts | 82° |
| 2026-05-05 05:33 | -34.84177 | 148.77332 | 3537 ft | 171 kts | 81° |
| 2026-05-05 05:33 | -34.83953 | 148.78758 | 3533 ft | 172 kts | 80° |
| 2026-05-05 05:34 | -34.83718 | 148.80186 | 3533 ft | 172 kts | 80° |
| 2026-05-05 05:34 | -34.83486 | 148.81608 | 3520 ft | 171 kts | 80° |
| 2026-05-05 05:34 | -34.83245 | 148.83023 | 3531 ft | 171 kts | 80° |
| 2026-05-05 05:34 | -34.83013 | 148.84440 | 3534 ft | 171 kts | 80° |
| 2026-05-05 05:35 | -34.82783 | 148.85855 | 3532 ft | 170 kts | 80° |
| 2026-05-05 05:35 | -34.82555 | 148.87268 | 3531 ft | 170 kts | 80° |
| 2026-05-05 05:35 | -34.82329 | 148.88674 | 3535 ft | 171 kts | 80° |
| 2026-05-05 05:35 | -34.82096 | 148.90096 | 3536 ft | 172 kts | 80° |
| 2026-05-05 05:36 | -34.81866 | 148.91528 | 3535 ft | 173 kts | 80° |
| 2026-05-05 05:36 | -34.81643 | 148.92962 | 3525 ft | 172 kts | 80° |
| 2026-05-05 05:36 | -34.81408 | 148.94380 | 3526 ft | 171 kts | 80° |
| 2026-05-05 05:36 | -34.81190 | 148.95795 | 3521 ft | 170 kts | 80° |
| 2026-05-05 05:37 | -34.80970 | 148.97205 | 3537 ft | 170 kts | 80° |
| 2026-05-05 05:37 | -34.80748 | 148.98606 | 3522 ft | 169 kts | 80° |
| 2026-05-05 05:37 | -34.80517 | 149.00011 | 3537 ft | 169 kts | 80° |
| 2026-05-05 05:37 | -34.80296 | 149.01414 | 3531 ft | 169 kts | 80° |
| 2026-05-05 05:38 | -34.80072 | 149.02815 | 3532 ft | 169 kts | 80° |
| 2026-05-05 05:38 | -34.79834 | 149.04215 | 3527 ft | 168 kts | 80° |
| 2026-05-05 05:38 | -34.79604 | 149.05622 | 3529 ft | 170 kts | 80° |
| 2026-05-05 05:38 | -34.79389 | 149.07041 | 3525 ft | 172 kts | 80° |
| 2026-05-05 05:39 | -34.79171 | 149.08468 | 3526 ft | 171 kts | 80° |
| 2026-05-05 05:39 | -34.78950 | 149.09883 | 3538 ft | 169 kts | 80° |
| 2026-05-05 05:39 | -34.78731 | 149.11290 | 3532 ft | 170 kts | 80° |
| 2026-05-05 05:39 | -34.78510 | 149.12718 | 3528 ft | 173 kts | 80° |
| 2026-05-05 05:40 | -34.78236 | 149.14117 | 3519 ft | 172 kts | 72° |
| 2026-05-05 05:40 | -34.77712 | 149.15423 | 3499 ft | 172 kts | 59° |
| 2026-05-05 05:40 | -34.77118 | 149.16681 | 3547 ft | 171 kts | 59° |
| 2026-05-05 05:40 | -34.76542 | 149.17936 | 3534 ft | 170 kts | 59° |
| 2026-05-05 05:41 | -34.75960 | 149.19179 | 3539 ft | 167 kts | 59° |
| 2026-05-05 05:41 | -34.75396 | 149.20424 | 3537 ft | 168 kts | 59° |
| 2026-05-05 05:41 | -34.74844 | 149.21680 | 3539 ft | 168 kts | 59° |
| 2026-05-05 05:41 | -34.74272 | 149.22927 | 3530 ft | 169 kts | 59° |
| 2026-05-05 05:42 | -34.73719 | 149.24194 | 3536 ft | 171 kts | 59° |
| 2026-05-05 05:42 | -34.73147 | 149.25460 | 3523 ft | 171 kts | 59° |
| 2026-05-05 05:42 | -34.72569 | 149.26710 | 3532 ft | 169 kts | 59° |
| 2026-05-05 05:42 | -34.72001 | 149.27958 | 3529 ft | 169 kts | 59° |
| 2026-05-05 05:43 | -34.71428 | 149.29202 | 3540 ft | 167 kts | 59° |
| 2026-05-05 05:43 | -34.70850 | 149.30437 | 3538 ft | 169 kts | 59° |
| 2026-05-05 05:43 | -34.70265 | 149.31684 | 3533 ft | 171 kts | 59° |
| 2026-05-05 05:43 | -34.69687 | 149.32920 | 3532 ft | 170 kts | 59° |
| 2026-05-05 05:44 | -34.69103 | 149.34165 | 3529 ft | 170 kts | 59° |
| 2026-05-05 05:44 | -34.68538 | 149.35419 | 3530 ft | 169 kts | 60° |
| 2026-05-05 05:44 | -34.67982 | 149.36676 | 3538 ft | 168 kts | 60° |
| 2026-05-05 05:44 | -34.67443 | 149.37945 | 3532 ft | 170 kts | 60° |
| 2026-05-05 05:45 | -34.66915 | 149.39194 | 3533 ft | 163 kts | 60° |
| 2026-05-05 05:45 | -34.66402 | 149.40388 | 3537 ft | 156 kts | 60° |
| 2026-05-05 05:45 | -34.65906 | 149.41541 | 3533 ft | 153 kts | 60° |
| 2026-05-05 05:45 | -34.65398 | 149.42673 | 3529 ft | 154 kts | 60° |
| 2026-05-05 05:46 | -34.64897 | 149.43814 | 3530 ft | 152 kts | 60° |
| 2026-05-05 05:46 | -34.64395 | 149.44931 | 3529 ft | 151 kts | 60° |
| 2026-05-05 05:46 | -34.63893 | 149.46084 | 3530 ft | 156 kts | 60° |
| 2026-05-05 05:46 | -34.63373 | 149.47231 | 3529 ft | 155 kts | 60° |
| 2026-05-05 05:47 | -34.62856 | 149.48390 | 3519 ft | 156 kts | 60° |
| 2026-05-05 05:47 | -34.62331 | 149.49528 | 3524 ft | 154 kts | 60° |
| 2026-05-05 05:47 | -34.61812 | 149.50674 | 3521 ft | 156 kts | 60° |
| 2026-05-05 05:47 | -34.61290 | 149.51817 | 3524 ft | 153 kts | 60° |
| 2026-05-05 05:48 | -34.60770 | 149.52944 | 3535 ft | 155 kts | 60° |
| 2026-05-05 05:48 | -34.60248 | 149.54102 | 3747 ft | 156 kts | 60° |
| 2026-05-05 05:48 | -34.59730 | 149.55255 | 3982 ft | 156 kts | 60° |
| 2026-05-05 05:48 | -34.59199 | 149.56411 | 3994 ft | 156 kts | 60° |
| 2026-05-05 05:49 | -34.58672 | 149.57557 | 3992 ft | 156 kts | 60° |
| 2026-05-05 05:49 | -34.58146 | 149.58701 | 3990 ft | 154 kts | 60° |
| 2026-05-05 05:49 | -34.57635 | 149.59836 | 3985 ft | 153 kts | 60° |
| 2026-05-05 05:49 | -34.57114 | 149.60994 | 3971 ft | 159 kts | 60° |
| 2026-05-05 05:50 | -34.56599 | 149.62163 | 3976 ft | 159 kts | 60° |
| 2026-05-05 05:50 | -34.56080 | 149.63337 | 3977 ft | 155 kts | 60° |
| 2026-05-05 05:50 | -34.55571 | 149.64493 | 3972 ft | 160 kts | 60° |
| 2026-05-05 05:50 | -34.55056 | 149.65669 | 3980 ft | 156 kts | 60° |
| 2026-05-05 05:51 | -34.54544 | 149.66816 | 3973 ft | 153 kts | 60° |
| 2026-05-05 05:51 | -34.54031 | 149.67952 | 3981 ft | 156 kts | 60° |
| 2026-05-05 05:51 | -34.53513 | 149.69110 | 3980 ft | 156 kts | 60° |
| 2026-05-05 05:51 | -34.53001 | 149.70265 | 3981 ft | 155 kts | 60° |
| 2026-05-05 05:52 | -34.52482 | 149.71400 | 3982 ft | 154 kts | 60° |
| 2026-05-05 05:52 | -34.51948 | 149.72557 | 3973 ft | 157 kts | 60° |
| 2026-05-05 05:52 | -34.51416 | 149.73696 | 3973 ft | 155 kts | 60° |
| 2026-05-05 05:52 | -34.50885 | 149.74834 | 3986 ft | 153 kts | 60° |
| 2026-05-05 05:53 | -34.50345 | 149.75978 | 3975 ft | 158 kts | 60° |
| 2026-05-05 05:53 | -34.49795 | 149.77183 | 3827 ft | 173 kts | 60° |
| 2026-05-05 05:53 | -34.49171 | 149.78495 | 3084 ft | 190 kts | 60° |
| 2026-05-05 05:53 | -34.48577 | 149.79745 | 3345 ft | 162 kts | 60° |
| 2026-05-05 05:54 | -34.48008 | 149.80942 | 3653 ft | 168 kts | 59° |
| 2026-05-05 05:54 | -34.47429 | 149.82165 | 3632 ft | 166 kts | 60° |
| 2026-05-05 05:54 | -34.46850 | 149.83381 | 3820 ft | 173 kts | 58° |
| 2026-05-05 05:54 | -34.46249 | 149.84627 | 3731 ft | 166 kts | 58° |
| 2026-05-05 05:55 | -34.45675 | 149.85801 | 3710 ft | 166 kts | 58° |
| 2026-05-05 05:55 | -34.45071 | 149.87022 | 3685 ft | 179 kts | 57° |
| 2026-05-05 05:55 | -34.44378 | 149.88377 | 3588 ft | 197 kts | 57° |
| 2026-05-05 05:55 | -34.43621 | 149.89779 | 3080 ft | 195 kts | 56° |
| 2026-05-05 05:56 | -34.42906 | 149.91021 | 3142 ft | 162 kts | 54° |
| 2026-05-05 05:56 | -34.42275 | 149.92114 | 3471 ft | 173 kts | 56° |
| 2026-05-05 05:56 | -34.41564 | 149.93481 | 3633 ft | 206 kts | 61° |
| 2026-05-05 05:56 | -34.40795 | 149.94965 | 3621 ft | 197 kts | 57° |
| 2026-05-05 05:57 | -34.40021 | 149.96361 | 3704 ft | 199 kts | 56° |
| 2026-05-05 05:57 | -34.39217 | 149.97727 | 3599 ft | 200 kts | 53° |
| 2026-05-05 05:57 | -34.38386 | 149.99047 | 3743 ft | 195 kts | 52° |
| 2026-05-05 05:57 | -34.37519 | 150.00352 | 3561 ft | 188 kts | 50° |
| 2026-05-05 05:58 | -34.36777 | 150.01549 | 3657 ft | 174 kts | 54° |
| 2026-05-05 05:58 | -34.36086 | 150.02700 | 3679 ft | 163 kts | 54° |
| 2026-05-05 05:58 | -34.35451 | 150.03855 | 3654 ft | 176 kts | 57° |
| 2026-05-05 05:58 | -34.34720 | 150.05234 | 3645 ft | 207 kts | 58° |
| 2026-05-05 05:59 | -34.33953 | 150.06677 | 3627 ft | 201 kts | 55° |
| 2026-05-05 05:59 | -34.33148 | 150.08093 | 3651 ft | 206 kts | 54° |
| 2026-05-05 05:59 | -34.32300 | 150.09496 | 3633 ft | 207 kts | 53° |
| 2026-05-05 05:59 | -34.31429 | 150.10850 | 3624 ft | 204 kts | 51° |
| 2026-05-05 06:00 | -34.30500 | 150.12211 | 3647 ft | 206 kts | 49° |
| 2026-05-05 06:00 | -34.29887 | 150.13066 | 3631 ft | 203 kts | 49° |
| 2026-05-05 06:00 | -34.28929 | 150.14340 | 3632 ft | 205 kts | 45° |
| 2026-05-05 06:00 | -34.28025 | 150.15731 | 3636 ft | 213 kts | 56° |
| 2026-05-05 06:01 | -34.27280 | 150.17895 | 3646 ft | 207 kts | 77° |
| 2026-05-05 06:01 | -34.27015 | 150.18941 | 3668 ft | 177 kts | 76° |
| 2026-05-05 06:01 | -34.26647 | 150.20397 | 3642 ft | 187 kts | 76° |
| 2026-05-05 06:01 | -34.26256 | 150.21919 | 3638 ft | 191 kts | 76° |
| 2026-05-05 06:02 | -34.25867 | 150.23449 | 3637 ft | 194 kts | 76° |
| 2026-05-05 06:02 | -34.25476 | 150.25036 | 3639 ft | 194 kts | 76° |
| 2026-05-05 06:02 | -34.25085 | 150.26601 | 3635 ft | 194 kts | 76° |
| 2026-05-05 06:02 | -34.24707 | 150.28174 | 3628 ft | 195 kts | 76° |
| 2026-05-05 06:03 | -34.24319 | 150.29727 | 3616 ft | 196 kts | 76° |
| 2026-05-05 06:03 | -34.23937 | 150.31301 | 3609 ft | 194 kts | 76° |
| 2026-05-05 06:03 | -34.23549 | 150.32901 | 3602 ft | 205 kts | 76° |
| 2026-05-05 06:03 | -34.23147 | 150.34550 | 3609 ft | 204 kts | 76° |
| 2026-05-05 06:04 | -34.22750 | 150.36205 | 3623 ft | 206 kts | 76° |
| 2026-05-05 06:04 | -34.22346 | 150.37846 | 3620 ft | 203 kts | 76° |
| 2026-05-05 06:04 | -34.21964 | 150.39499 | 3614 ft | 207 kts | 76° |
| 2026-05-05 06:04 | -34.21553 | 150.41144 | 3609 ft | 203 kts | 76° |
| 2026-05-05 06:05 | -34.21118 | 150.42766 | 3603 ft | 204 kts | 75° |
| 2026-05-05 06:05 | -34.20642 | 150.44390 | 3624 ft | 203 kts | 72° |
| 2026-05-05 06:05 | -34.20143 | 150.45992 | 3618 ft | 202 kts | 71° |
| 2026-05-05 06:05 | -34.19627 | 150.47584 | 3633 ft | 203 kts | 71° |
| 2026-05-05 06:06 | -34.19119 | 150.49183 | 3632 ft | 200 kts | 71° |
| 2026-05-05 06:06 | -34.18623 | 150.50771 | 3621 ft | 202 kts | 71° |
| 2026-05-05 06:06 | -34.18119 | 150.52355 | 3618 ft | 203 kts | 71° |
| 2026-05-05 06:06 | -34.17606 | 150.53945 | 3616 ft | 202 kts | 71° |
| 2026-05-05 06:07 | -34.17022 | 150.55491 | 3604 ft | 207 kts | 62° |
| 2026-05-05 06:07 | -34.16258 | 150.56904 | 3607 ft | 201 kts | 58° |
| 2026-05-05 06:07 | -34.15491 | 150.58317 | 3602 ft | 201 kts | 58° |
| 2026-05-05 06:07 | -34.14724 | 150.59717 | 3547 ft | 200 kts | 58° |
| 2026-05-05 06:08 | -34.13971 | 150.61097 | 3375 ft | 199 kts | 58° |
| 2026-05-05 06:08 | -34.13208 | 150.62513 | 3231 ft | 203 kts | 58° |
| 2026-05-05 06:08 | -34.12434 | 150.63921 | 3104 ft | 201 kts | 58° |
| 2026-05-05 06:08 | -34.11666 | 150.65313 | 2909 ft | 199 kts | 58° |
| 2026-05-05 06:09 | -34.10902 | 150.66695 | 2647 ft | 199 kts | 58° |
| 2026-05-05 06:09 | -34.10132 | 150.68087 | 2394 ft | 199 kts | 58° |
| 2026-05-05 06:09 | -34.09371 | 150.69471 | 2105 ft | 199 kts | 58° |
| 2026-05-05 06:09 | -34.08623 | 150.70850 | 1828 ft | 199 kts | 59° |
| 2026-05-05 06:10 | -34.07912 | 150.72248 | 1638 ft | 195 kts | 62° |
| 2026-05-05 06:10 | -34.07281 | 150.73720 | 1574 ft | 196 kts | 69° |
| 2026-05-05 06:10 | -34.06701 | 150.75207 | 1587 ft | 198 kts | 68° |
| 2026-05-05 06:10 | -34.06134 | 150.76684 | 1595 ft | 191 kts | 70° |
| 2026-05-05 06:11 | -34.05549 | 150.78101 | 1583 ft | 185 kts | 68° |
| 2026-05-05 06:11 | -34.04988 | 150.79482 | 1577 ft | 178 kts | 70° |
| 2026-05-05 06:11 | -34.04441 | 150.80758 | 1571 ft | 166 kts | 67° |
| 2026-05-05 06:11 | -34.03902 | 150.81950 | 1573 ft | 159 kts | 66° |
| 2026-05-05 06:12 | -34.03366 | 150.83096 | 1573 ft | 155 kts | 66° |
| 2026-05-05 06:12 | -34.02929 | 150.84271 | 1568 ft | 153 kts | 76° |
| 2026-05-05 06:12 | -34.02586 | 150.85473 | 1569 ft | 151 kts | 76° |
| 2026-05-05 06:12 | -34.02246 | 150.86654 | 1567 ft | 151 kts | 78° |
| 2026-05-05 06:13 | -34.01972 | 150.87867 | 1570 ft | 149 kts | 79° |
| 2026-05-05 06:13 | -34.01688 | 150.89025 | 1575 ft | 135 kts | 79° |
| 2026-05-05 06:13 | -34.01436 | 150.90056 | 1568 ft | 126 kts | 81° |
| 2026-05-05 06:13 | -34.01184 | 150.91052 | 1454 ft | 123 kts | 78° |
| 2026-05-05 06:14 | -34.00913 | 150.92024 | 1289 ft | 122 kts | 77° |
| 2026-05-05 06:14 | -34.00606 | 150.92975 | 1114 ft | 118 kts | 77° |
| 2026-05-05 06:14 | -34.00330 | 150.93817 | 1015 ft | 99 kts | 92° |
| 2026-05-05 06:14 | -34.00276 | 150.94549 | 877 ft | 86 kts | 128° |
| 2026-05-05 06:15 | -34.00534 | 150.95263 | 842 ft | 91 kts | 127° |
| 2026-05-05 06:15 | -34.00635 | 150.95954 | 748 ft | 85 kts | 81° |
| 2026-05-05 06:15 | -34.00216 | 150.96357 | 615 ft | 70 kts | 331° |
| 2026-05-05 06:15 | -33.99980 | 150.95946 | 550 ft | 60 kts | 309° |
| 2026-05-05 06:16 | -33.99773 | 150.95600 | 329 ft | 38 kts | 309° |
| 2026-05-05 06:16 | -33.99693 | 150.95469 | 247 ft | 15 kts | 311° |
| 2026-05-05 06:16 | -33.99664 | 150.95401 | 243 ft | 9 kts | 313° |
| 2026-05-05 06:16 | -33.99652 | 150.95370 | 244 ft | 2 kts | 311° |
| 2026-05-05 06:17 | -33.99624 | 150.95351 | 243 ft | 9 kts | 36° |
| 2026-05-05 06:17 | -33.99580 | 150.95379 | 242 ft | 8 kts | 341° |
| 2026-05-05 06:17 | -33.99556 | 150.95355 | 242 ft | 4 kts | 212° |
| 2026-05-05 06:17 | -33.99562 | 150.95355 | 240 ft | 0 kts | 127° |
| 2026-05-05 06:20 | -33.99564 | 150.95358 | 240 ft | 0 kts | 127° |